sensor_id;sensor_type;location;lat;lon;timestamp;P1;durP1;ratioP1;P2;durP2;ratioP2
7693;SDS011;3889;48.162;11.510;2023-04-15T00:01:48;5.57;;;4.10;;
7693;SDS011;3889;48.162;11.510;2023-04-15T00:04:18;4.70;;;3.70;;
7693;SDS011;3889;48.162;11.510;2023-04-15T00:06:49;6.45;;;4.05;;
7693;SDS011;3889;48.162;11.510;2023-04-15T00:09:18;8.02;;;4.53;;
7693;SDS011;3889;48.162;11.510;2023-04-15T00:11:46;5.97;;;4.18;;
7693;SDS011;3889;48.162;11.510;2023-04-15T00:14:14;6.15;;;4.00;;
7693;SDS011;3889;48.162;11.510;2023-04-15T00:16:42;4.47;;;4.00;;
7693;SDS011;3889;48.162;11.510;2023-04-15T00:19:09;6.87;;;4.50;;
7693;SDS011;3889;48.162;11.510;2023-04-15T00:21:39;5.97;;;4.28;;
7693;SDS011;3889;48.162;11.510;2023-04-15T00:24:07;5.43;;;4.47;;
7693;SDS011;3889;48.162;11.510;2023-04-15T00:26:35;4.85;;;3.75;;
7693;SDS011;3889;48.162;11.510;2023-04-15T00:29:03;5.65;;;4.32;;
7693;SDS011;3889;48.162;11.510;2023-04-15T00:31:30;7.35;;;4.80;;
7693;SDS011;3889;48.162;11.510;2023-04-15T00:33:58;6.35;;;4.50;;
7693;SDS011;3889;48.162;11.510;2023-04-15T00:36:27;6.38;;;4.43;;
7693;SDS011;3889;48.162;11.510;2023-04-15T00:38:56;6.18;;;4.60;;
7693;SDS011;3889;48.162;11.510;2023-04-15T00:41:24;6.20;;;4.30;;
7693;SDS011;3889;48.162;11.510;2023-04-15T00:43:52;5.50;;;4.50;;
7693;SDS011;3889;48.162;11.510;2023-04-15T00:46:20;6.57;;;4.82;;
7693;SDS011;3889;48.162;11.510;2023-04-15T00:48:49;6.15;;;4.45;;
7693;SDS011;3889;48.162;11.510;2023-04-15T00:51:17;5.60;;;4.13;;
7693;SDS011;3889;48.162;11.510;2023-04-15T00:53:45;5.20;;;4.70;;
7693;SDS011;3889;48.162;11.510;2023-04-15T00:56:15;7.63;;;4.90;;
7693;SDS011;3889;48.162;11.510;2023-04-15T00:58:43;6.32;;;4.97;;
7693;SDS011;3889;48.162;11.510;2023-04-15T01:01:10;7.78;;;5.28;;
7693;SDS011;3889;48.162;11.510;2023-04-15T01:03:38;6.78;;;5.30;;
7693;SDS011;3889;48.162;11.510;2023-04-15T01:06:06;7.43;;;5.45;;
7693;SDS011;3889;48.162;11.510;2023-04-15T01:08:34;6.23;;;5.10;;
7693;SDS011;3889;48.162;11.510;2023-04-15T01:11:02;7.88;;;5.38;;
7693;SDS011;3889;48.162;11.510;2023-04-15T01:13:31;7.32;;;5.53;;
7693;SDS011;3889;48.162;11.510;2023-04-15T01:16:00;7.18;;;5.97;;
7693;SDS011;3889;48.162;11.510;2023-04-15T01:18:28;6.80;;;5.57;;
7693;SDS011;3889;48.162;11.510;2023-04-15T01:20:57;6.95;;;5.50;;
7693;SDS011;3889;48.162;11.510;2023-04-15T01:23:27;6.25;;;5.57;;
7693;SDS011;3889;48.162;11.510;2023-04-15T01:25:57;6.63;;;5.70;;
7693;SDS011;3889;48.162;11.510;2023-04-15T01:28:25;9.65;;;5.90;;
7693;SDS011;3889;48.162;11.510;2023-04-15T01:31:04;6.53;;;5.47;;
7693;SDS011;3889;48.162;11.510;2023-04-15T01:33:36;5.63;;;4.93;;
7693;SDS011;3889;48.162;11.510;2023-04-15T01:36:04;6.97;;;5.68;;
7693;SDS011;3889;48.162;11.510;2023-04-15T01:38:35;6.93;;;5.90;;
7693;SDS011;3889;48.162;11.510;2023-04-15T01:41:04;6.82;;;5.75;;
7693;SDS011;3889;48.162;11.510;2023-04-15T01:43:33;6.53;;;5.88;;
7693;SDS011;3889;48.162;11.510;2023-04-15T01:46:02;6.20;;;5.60;;
7693;SDS011;3889;48.162;11.510;2023-04-15T01:48:30;7.13;;;5.97;;
7693;SDS011;3889;48.162;11.510;2023-04-15T01:50:58;6.88;;;5.65;;
7693;SDS011;3889;48.162;11.510;2023-04-15T01:53:26;6.88;;;5.75;;
7693;SDS011;3889;48.162;11.510;2023-04-15T01:55:54;7.18;;;5.72;;
7693;SDS011;3889;48.162;11.510;2023-04-15T01:58:23;6.63;;;5.67;;
7693;SDS011;3889;48.162;11.510;2023-04-15T02:00:52;6.70;;;6.00;;
7693;SDS011;3889;48.162;11.510;2023-04-15T02:03:20;6.70;;;6.00;;
7693;SDS011;3889;48.162;11.510;2023-04-15T02:05:48;7.13;;;5.85;;
7693;SDS011;3889;48.162;11.510;2023-04-15T02:08:16;7.00;;;5.95;;
7693;SDS011;3889;48.162;11.510;2023-04-15T02:10:44;7.68;;;6.07;;
7693;SDS011;3889;48.162;11.510;2023-04-15T02:13:12;7.30;;;6.00;;
7693;SDS011;3889;48.162;11.510;2023-04-15T02:15:46;6.78;;;5.70;;
7693;SDS011;3889;48.162;11.510;2023-04-15T02:18:14;6.10;;;5.50;;
7693;SDS011;3889;48.162;11.510;2023-04-15T02:20:43;6.55;;;5.88;;
7693;SDS011;3889;48.162;11.510;2023-04-15T02:23:12;6.93;;;5.70;;
7693;SDS011;3889;48.162;11.510;2023-04-15T02:25:40;7.22;;;5.70;;
7693;SDS011;3889;48.162;11.510;2023-04-15T02:28:18;6.60;;;6.00;;
7693;SDS011;3889;48.162;11.510;2023-04-15T02:30:48;9.02;;;5.88;;
7693;SDS011;3889;48.162;11.510;2023-04-15T02:33:18;6.60;;;5.70;;
7693;SDS011;3889;48.162;11.510;2023-04-15T02:35:45;7.47;;;5.65;;
7693;SDS011;3889;48.162;11.510;2023-04-15T02:38:13;6.65;;;5.53;;
7693;SDS011;3889;48.162;11.510;2023-04-15T02:40:43;6.90;;;5.68;;
7693;SDS011;3889;48.162;11.510;2023-04-15T02:43:11;7.63;;;5.55;;
7693;SDS011;3889;48.162;11.510;2023-04-15T02:45:39;7.18;;;5.55;;
7693;SDS011;3889;48.162;11.510;2023-04-15T02:48:10;7.88;;;5.65;;
7693;SDS011;3889;48.162;11.510;2023-04-15T02:50:37;6.88;;;6.00;;
7693;SDS011;3889;48.162;11.510;2023-04-15T02:53:06;5.97;;;5.32;;
7693;SDS011;3889;48.162;11.510;2023-04-15T02:55:33;6.35;;;5.28;;
7693;SDS011;3889;48.162;11.510;2023-04-15T02:58:01;6.68;;;5.43;;
7693;SDS011;3889;48.162;11.510;2023-04-15T03:00:29;6.07;;;5.22;;
7693;SDS011;3889;48.162;11.510;2023-04-15T03:02:57;6.80;;;5.43;;
7693;SDS011;3889;48.162;11.510;2023-04-15T03:05:30;5.97;;;5.28;;
7693;SDS011;3889;48.162;11.510;2023-04-15T03:07:57;5.93;;;5.28;;
7693;SDS011;3889;48.162;11.510;2023-04-15T03:10:26;6.03;;;5.43;;
7693;SDS011;3889;48.162;11.510;2023-04-15T03:12:54;6.53;;;5.10;;
7693;SDS011;3889;48.162;11.510;2023-04-15T03:15:22;7.32;;;5.40;;
7693;SDS011;3889;48.162;11.510;2023-04-15T03:17:49;8.05;;;5.32;;
7693;SDS011;3889;48.162;11.510;2023-04-15T03:20:17;8.77;;;5.55;;
7693;SDS011;3889;48.162;11.510;2023-04-15T03:22:47;6.00;;;5.40;;
7693;SDS011;3889;48.162;11.510;2023-04-15T03:25:15;6.67;;;5.37;;
7693;SDS011;3889;48.162;11.510;2023-04-15T03:27:43;5.88;;;5.22;;
7693;SDS011;3889;48.162;11.510;2023-04-15T03:30:11;7.45;;;5.20;;
7693;SDS011;3889;48.162;11.510;2023-04-15T03:32:40;7.50;;;5.38;;
7693;SDS011;3889;48.162;11.510;2023-04-15T03:35:08;5.80;;;5.00;;
7693;SDS011;3889;48.162;11.510;2023-04-15T03:37:36;6.22;;;5.50;;
7693;SDS011;3889;48.162;11.510;2023-04-15T03:40:06;5.68;;;4.85;;
7693;SDS011;3889;48.162;11.510;2023-04-15T03:42:34;6.57;;;4.80;;
7693;SDS011;3889;48.162;11.510;2023-04-15T03:45:03;5.55;;;4.80;;
7693;SDS011;3889;48.162;11.510;2023-04-15T03:47:32;6.10;;;5.03;;
7693;SDS011;3889;48.162;11.510;2023-04-15T03:50:00;6.17;;;4.97;;
7693;SDS011;3889;48.162;11.510;2023-04-15T03:52:28;6.28;;;4.55;;
7693;SDS011;3889;48.162;11.510;2023-04-15T03:54:56;5.32;;;4.55;;
7693;SDS011;3889;48.162;11.510;2023-04-15T03:57:25;5.93;;;4.50;;
7693;SDS011;3889;48.162;11.510;2023-04-15T03:59:53;6.75;;;4.88;;
7693;SDS011;3889;48.162;11.510;2023-04-15T04:02:21;6.70;;;4.70;;
7693;SDS011;3889;48.162;11.510;2023-04-15T04:04:49;7.20;;;5.18;;
7693;SDS011;3889;48.162;11.510;2023-04-15T04:07:22;6.47;;;4.90;;
7693;SDS011;3889;48.162;11.510;2023-04-15T04:09:50;5.97;;;4.57;;
7693;SDS011;3889;48.162;11.510;2023-04-15T04:12:18;5.70;;;4.40;;
7693;SDS011;3889;48.162;11.510;2023-04-15T04:14:47;6.68;;;4.45;;
7693;SDS011;3889;48.162;11.510;2023-04-15T04:17:15;7.17;;;4.53;;
7693;SDS011;3889;48.162;11.510;2023-04-15T04:19:43;5.45;;;4.47;;
7693;SDS011;3889;48.162;11.510;2023-04-15T04:22:11;6.07;;;4.47;;
7693;SDS011;3889;48.162;11.510;2023-04-15T04:24:39;6.30;;;4.40;;
7693;SDS011;3889;48.162;11.510;2023-04-15T04:27:07;7.60;;;4.50;;
7693;SDS011;3889;48.162;11.510;2023-04-15T04:29:35;6.53;;;4.38;;
7693;SDS011;3889;48.162;11.510;2023-04-15T04:32:05;5.85;;;4.15;;
7693;SDS011;3889;48.162;11.510;2023-04-15T04:34:33;6.15;;;4.32;;
7693;SDS011;3889;48.162;11.510;2023-04-15T04:37:01;5.20;;;4.00;;
7693;SDS011;3889;48.162;11.510;2023-04-15T04:39:29;5.70;;;4.18;;
7693;SDS011;3889;48.162;11.510;2023-04-15T04:41:57;5.70;;;4.28;;
7693;SDS011;3889;48.162;11.510;2023-04-15T04:44:26;6.13;;;4.00;;
7693;SDS011;3889;48.162;11.510;2023-04-15T04:46:54;4.83;;;3.90;;
7693;SDS011;3889;48.162;11.510;2023-04-15T04:49:23;4.60;;;3.85;;
7693;SDS011;3889;48.162;11.510;2023-04-15T04:51:51;5.23;;;4.00;;
7693;SDS011;3889;48.162;11.510;2023-04-15T04:54:19;5.75;;;4.07;;
7693;SDS011;3889;48.162;11.510;2023-04-15T04:56:47;4.97;;;3.95;;
7693;SDS011;3889;48.162;11.510;2023-04-15T04:59:15;6.22;;;4.15;;
7693;SDS011;3889;48.162;11.510;2023-04-15T05:01:44;7.07;;;3.90;;
7693;SDS011;3889;48.162;11.510;2023-04-15T05:04:12;7.00;;;3.83;;
7693;SDS011;3889;48.162;11.510;2023-04-15T05:06:42;5.00;;;3.80;;
7693;SDS011;3889;48.162;11.510;2023-04-15T05:09:09;5.17;;;3.97;;
7693;SDS011;3889;48.162;11.510;2023-04-15T05:11:37;7.05;;;4.10;;
7693;SDS011;3889;48.162;11.510;2023-04-15T05:14:05;5.55;;;3.72;;
7693;SDS011;3889;48.162;11.510;2023-04-15T05:16:33;4.60;;;3.80;;
7693;SDS011;3889;48.162;11.510;2023-04-15T05:19:01;5.90;;;3.63;;
7693;SDS011;3889;48.162;11.510;2023-04-15T05:21:29;6.18;;;3.85;;
7693;SDS011;3889;48.162;11.510;2023-04-15T05:23:58;6.43;;;4.00;;
7693;SDS011;3889;48.162;11.510;2023-04-15T05:26:26;5.93;;;3.80;;
7693;SDS011;3889;48.162;11.510;2023-04-15T05:28:54;4.90;;;3.28;;
7693;SDS011;3889;48.162;11.510;2023-04-15T05:31:22;5.30;;;3.25;;
7693;SDS011;3889;48.162;11.510;2023-04-15T05:33:50;5.00;;;3.33;;
7693;SDS011;3889;48.162;11.510;2023-04-15T05:36:18;5.47;;;3.40;;
7693;SDS011;3889;48.162;11.510;2023-04-15T05:38:46;4.50;;;3.40;;
7693;SDS011;3889;48.162;11.510;2023-04-15T05:41:15;6.37;;;3.27;;
7693;SDS011;3889;48.162;11.510;2023-04-15T05:43:45;4.78;;;3.15;;
7693;SDS011;3889;48.162;11.510;2023-04-15T05:46:12;6.47;;;3.47;;
7693;SDS011;3889;48.162;11.510;2023-04-15T05:48:41;3.80;;;3.05;;
7693;SDS011;3889;48.162;11.510;2023-04-15T05:51:08;4.57;;;2.80;;
7693;SDS011;3889;48.162;11.510;2023-04-15T05:53:36;4.83;;;2.87;;
7693;SDS011;3889;48.162;11.510;2023-04-15T05:56:06;5.00;;;3.00;;
7693;SDS011;3889;48.162;11.510;2023-04-15T05:58:35;4.63;;;2.70;;
7693;SDS011;3889;48.162;11.510;2023-04-15T06:01:03;4.15;;;2.90;;
7693;SDS011;3889;48.162;11.510;2023-04-15T06:03:31;5.28;;;3.13;;
7693;SDS011;3889;48.162;11.510;2023-04-15T06:05:59;4.28;;;2.78;;
7693;SDS011;3889;48.162;11.510;2023-04-15T06:08:27;4.72;;;2.92;;
7693;SDS011;3889;48.162;11.510;2023-04-15T06:10:55;5.45;;;2.92;;
7693;SDS011;3889;48.162;11.510;2023-04-15T06:13:24;4.30;;;2.50;;
7693;SDS011;3889;48.162;11.510;2023-04-15T06:15:54;4.00;;;2.80;;
7693;SDS011;3889;48.162;11.510;2023-04-15T06:18:21;5.53;;;2.80;;
7693;SDS011;3889;48.162;11.510;2023-04-15T06:20:49;5.53;;;3.05;;
7693;SDS011;3889;48.162;11.510;2023-04-15T06:23:18;6.03;;;2.90;;
7693;SDS011;3889;48.162;11.510;2023-04-15T06:25:46;3.55;;;2.50;;
7693;SDS011;3889;48.162;11.510;2023-04-15T06:28:13;4.50;;;2.80;;
7693;SDS011;3889;48.162;11.510;2023-04-15T06:30:41;4.18;;;2.42;;
7693;SDS011;3889;48.162;11.510;2023-04-15T06:33:10;4.43;;;2.58;;
7693;SDS011;3889;48.162;11.510;2023-04-15T06:35:38;3.97;;;2.80;;
7693;SDS011;3889;48.162;11.510;2023-04-15T06:38:06;3.80;;;2.72;;
7693;SDS011;3889;48.162;11.510;2023-04-15T06:40:34;3.40;;;2.22;;
7693;SDS011;3889;48.162;11.510;2023-04-15T06:43:02;3.63;;;2.40;;
7693;SDS011;3889;48.162;11.510;2023-04-15T06:45:30;3.42;;;2.42;;
7693;SDS011;3889;48.162;11.510;2023-04-15T06:47:58;4.23;;;2.53;;
7693;SDS011;3889;48.162;11.510;2023-04-15T06:50:27;4.88;;;2.60;;
7693;SDS011;3889;48.162;11.510;2023-04-15T06:52:55;3.75;;;2.25;;
7693;SDS011;3889;48.162;11.510;2023-04-15T06:55:23;3.60;;;2.47;;
7693;SDS011;3889;48.162;11.510;2023-04-15T06:57:51;4.28;;;2.30;;
7693;SDS011;3889;48.162;11.510;2023-04-15T07:00:19;4.23;;;2.27;;
7693;SDS011;3889;48.162;11.510;2023-04-15T07:02:47;3.92;;;2.38;;
7693;SDS011;3889;48.162;11.510;2023-04-15T07:05:15;4.63;;;2.47;;
7693;SDS011;3889;48.162;11.510;2023-04-15T07:07:45;4.50;;;2.55;;
7693;SDS011;3889;48.162;11.510;2023-04-15T07:10:13;5.03;;;2.60;;
7693;SDS011;3889;48.162;11.510;2023-04-15T07:12:41;3.42;;;2.55;;
7693;SDS011;3889;48.162;11.510;2023-04-15T07:15:09;5.18;;;2.42;;
7693;SDS011;3889;48.162;11.510;2023-04-15T07:17:37;3.80;;;2.35;;
7693;SDS011;3889;48.162;11.510;2023-04-15T07:20:07;5.18;;;2.40;;
7693;SDS011;3889;48.162;11.510;2023-04-15T07:22:35;4.30;;;2.40;;
7693;SDS011;3889;48.162;11.510;2023-04-15T07:25:05;4.38;;;2.40;;
7693;SDS011;3889;48.162;11.510;2023-04-15T07:27:34;4.38;;;2.30;;
7693;SDS011;3889;48.162;11.510;2023-04-15T07:30:02;4.00;;;2.35;;
7693;SDS011;3889;48.162;11.510;2023-04-15T07:32:30;5.05;;;2.40;;
7693;SDS011;3889;48.162;11.510;2023-04-15T07:34:58;4.22;;;2.25;;
7693;SDS011;3889;48.162;11.510;2023-04-15T07:37:26;4.85;;;2.30;;
7693;SDS011;3889;48.162;11.510;2023-04-15T07:39:54;4.22;;;2.17;;
7693;SDS011;3889;48.162;11.510;2023-04-15T07:42:24;5.57;;;2.35;;
7693;SDS011;3889;48.162;11.510;2023-04-15T07:44:52;5.47;;;2.25;;
7693;SDS011;3889;48.162;11.510;2023-04-15T07:47:20;4.22;;;2.15;;
7693;SDS011;3889;48.162;11.510;2023-04-15T07:49:48;2.53;;;1.93;;
7693;SDS011;3889;48.162;11.510;2023-04-15T07:52:16;3.67;;;2.08;;
7693;SDS011;3889;48.162;11.510;2023-04-15T07:54:44;3.78;;;2.40;;
7693;SDS011;3889;48.162;11.510;2023-04-15T07:57:12;4.40;;;2.53;;
7693;SDS011;3889;48.162;11.510;2023-04-15T07:59:41;4.95;;;2.80;;
7693;SDS011;3889;48.162;11.510;2023-04-15T08:02:09;4.25;;;2.10;;
7693;SDS011;3889;48.162;11.510;2023-04-15T08:04:37;3.28;;;2.13;;
7693;SDS011;3889;48.162;11.510;2023-04-15T08:07:06;3.72;;;2.10;;
7693;SDS011;3889;48.162;11.510;2023-04-15T08:09:34;4.20;;;2.05;;
7693;SDS011;3889;48.162;11.510;2023-04-15T08:12:02;4.60;;;2.40;;
7693;SDS011;3889;48.162;11.510;2023-04-15T08:14:30;3.45;;;2.20;;
7693;SDS011;3889;48.162;11.510;2023-04-15T08:16:59;4.32;;;2.60;;
7693;SDS011;3889;48.162;11.510;2023-04-15T08:19:27;4.28;;;2.20;;
7693;SDS011;3889;48.162;11.510;2023-04-15T08:21:56;3.13;;;2.38;;
7693;SDS011;3889;48.162;11.510;2023-04-15T08:24:23;3.33;;;2.40;;
7693;SDS011;3889;48.162;11.510;2023-04-15T08:26:52;4.57;;;2.70;;
7693;SDS011;3889;48.162;11.510;2023-04-15T08:29:20;4.18;;;2.50;;
7693;SDS011;3889;48.162;11.510;2023-04-15T08:31:48;4.75;;;2.65;;
7693;SDS011;3889;48.162;11.510;2023-04-15T08:34:17;4.65;;;2.75;;
7693;SDS011;3889;48.162;11.510;2023-04-15T08:36:45;6.40;;;2.73;;
7693;SDS011;3889;48.162;11.510;2023-04-15T08:39:12;5.53;;;2.90;;
7693;SDS011;3889;48.162;11.510;2023-04-15T08:41:44;5.28;;;2.75;;
7693;SDS011;3889;48.162;11.510;2023-04-15T08:44:13;4.30;;;2.53;;
7693;SDS011;3889;48.162;11.510;2023-04-15T08:46:41;4.68;;;2.60;;
7693;SDS011;3889;48.162;11.510;2023-04-15T08:49:10;5.05;;;2.65;;
7693;SDS011;3889;48.162;11.510;2023-04-15T08:51:41;3.67;;;2.73;;
7693;SDS011;3889;48.162;11.510;2023-04-15T08:54:10;3.45;;;2.50;;
7693;SDS011;3889;48.162;11.510;2023-04-15T08:56:39;4.03;;;2.47;;
7693;SDS011;3889;48.162;11.510;2023-04-15T08:59:07;4.28;;;2.92;;
7693;SDS011;3889;48.162;11.510;2023-04-15T09:01:37;3.88;;;2.80;;
7693;SDS011;3889;48.162;11.510;2023-04-15T09:04:05;2.95;;;2.60;;
7693;SDS011;3889;48.162;11.510;2023-04-15T09:06:33;5.20;;;2.85;;
7693;SDS011;3889;48.162;11.510;2023-04-15T09:09:03;3.53;;;2.90;;
7693;SDS011;3889;48.162;11.510;2023-04-15T09:11:31;3.72;;;2.70;;
7693;SDS011;3889;48.162;11.510;2023-04-15T09:13:59;4.15;;;2.65;;
7693;SDS011;3889;48.162;11.510;2023-04-15T09:16:27;3.27;;;2.60;;
7693;SDS011;3889;48.162;11.510;2023-04-15T09:18:54;3.55;;;2.80;;
7693;SDS011;3889;48.162;11.510;2023-04-15T09:21:22;3.85;;;2.92;;
7693;SDS011;3889;48.162;11.510;2023-04-15T09:23:54;4.68;;;2.83;;
7693;SDS011;3889;48.162;11.510;2023-04-15T09:26:32;4.35;;;3.38;;
7693;SDS011;3889;48.162;11.510;2023-04-15T09:29:04;4.32;;;3.25;;
7693;SDS011;3889;48.162;11.510;2023-04-15T09:31:33;4.57;;;2.92;;
7693;SDS011;3889;48.162;11.510;2023-04-15T09:34:01;4.10;;;3.20;;
7693;SDS011;3889;48.162;11.510;2023-04-15T09:36:33;4.22;;;3.20;;
7693;SDS011;3889;48.162;11.510;2023-04-15T09:39:17;4.60;;;3.20;;
7693;SDS011;3889;48.162;11.510;2023-04-15T09:41:47;4.80;;;3.30;;
7693;SDS011;3889;48.162;11.510;2023-04-15T09:44:31;3.58;;;3.10;;
7693;SDS011;3889;48.162;11.510;2023-04-15T09:46:59;4.55;;;3.50;;
7693;SDS011;3889;48.162;11.510;2023-04-15T09:49:27;4.20;;;3.50;;
7693;SDS011;3889;48.162;11.510;2023-04-15T09:51:59;5.47;;;3.85;;
7693;SDS011;3889;48.162;11.510;2023-04-15T09:54:32;3.50;;;3.20;;
7693;SDS011;3889;48.162;11.510;2023-04-15T09:57:06;4.60;;;3.35;;
7693;SDS011;3889;48.162;11.510;2023-04-15T09:59:35;4.13;;;3.25;;
7693;SDS011;3889;48.162;11.510;2023-04-15T10:02:03;5.75;;;3.40;;
7693;SDS011;3889;48.162;11.510;2023-04-15T10:04:34;4.15;;;3.30;;
7693;SDS011;3889;48.162;11.510;2023-04-15T10:07:03;3.80;;;3.33;;
7693;SDS011;3889;48.162;11.510;2023-04-15T10:09:32;5.07;;;4.45;;
7693;SDS011;3889;48.162;11.510;2023-04-15T10:12:02;4.30;;;3.50;;
7693;SDS011;3889;48.162;11.510;2023-04-15T10:14:32;4.97;;;3.55;;
7693;SDS011;3889;48.162;11.510;2023-04-15T10:17:04;5.03;;;3.60;;
7693;SDS011;3889;48.162;11.510;2023-04-15T10:19:32;5.65;;;3.60;;
7693;SDS011;3889;48.162;11.510;2023-04-15T10:22:02;4.13;;;3.72;;
7693;SDS011;3889;48.162;11.510;2023-04-15T10:24:31;4.10;;;3.70;;
7693;SDS011;3889;48.162;11.510;2023-04-15T10:27:00;4.32;;;3.63;;
7693;SDS011;3889;48.162;11.510;2023-04-15T10:29:29;4.45;;;3.53;;
7693;SDS011;3889;48.162;11.510;2023-04-15T10:31:59;4.47;;;3.80;;
7693;SDS011;3889;48.162;11.510;2023-04-15T10:34:28;5.75;;;4.30;;
7693;SDS011;3889;48.162;11.510;2023-04-15T10:36:59;5.20;;;4.00;;
7693;SDS011;3889;48.162;11.510;2023-04-15T10:39:39;4.60;;;3.83;;
7693;SDS011;3889;48.162;11.510;2023-04-15T10:42:10;4.20;;;3.80;;
7693;SDS011;3889;48.162;11.510;2023-04-15T10:44:40;5.87;;;4.27;;
7693;SDS011;3889;48.162;11.510;2023-04-15T10:47:09;5.65;;;4.38;;
7693;SDS011;3889;48.162;11.510;2023-04-15T10:49:42;5.72;;;4.40;;
7693;SDS011;3889;48.162;11.510;2023-04-15T10:52:11;5.07;;;4.30;;
7693;SDS011;3889;48.162;11.510;2023-04-15T10:54:41;6.38;;;4.63;;
7693;SDS011;3889;48.162;11.510;2023-04-15T10:57:14;4.67;;;4.23;;
7693;SDS011;3889;48.162;11.510;2023-04-15T11:00:00;5.40;;;4.55;;
7693;SDS011;3889;48.162;11.510;2023-04-15T11:02:43;5.35;;;4.32;;
7693;SDS011;3889;48.162;11.510;2023-04-15T11:05:13;5.82;;;4.47;;
7693;SDS011;3889;48.162;11.510;2023-04-15T11:07:50;5.28;;;4.38;;
7693;SDS011;3889;48.162;11.510;2023-04-15T11:13:22;6.07;;;4.75;;
7693;SDS011;3889;48.162;11.510;2023-04-15T11:15:56;5.25;;;4.75;;
7693;SDS011;3889;48.162;11.510;2023-04-15T11:18:30;5.38;;;4.80;;
7693;SDS011;3889;48.162;11.510;2023-04-15T11:21:00;5.10;;;4.45;;
7693;SDS011;3889;48.162;11.510;2023-04-15T11:23:31;7.40;;;5.40;;
7693;SDS011;3889;48.162;11.510;2023-04-15T11:26:00;7.22;;;5.38;;
7693;SDS011;3889;48.162;11.510;2023-04-15T11:28:31;6.30;;;5.50;;
7693;SDS011;3889;48.162;11.510;2023-04-15T11:31:05;7.15;;;5.15;;
7693;SDS011;3889;48.162;11.510;2023-04-15T11:33:35;5.95;;;4.78;;
7693;SDS011;3889;48.162;11.510;2023-04-15T11:36:04;6.22;;;5.00;;
7693;SDS011;3889;48.162;11.510;2023-04-15T11:38:32;6.00;;;5.30;;
7693;SDS011;3889;48.162;11.510;2023-04-15T11:41:00;7.03;;;5.15;;
7693;SDS011;3889;48.162;11.510;2023-04-15T11:43:30;6.00;;;5.27;;
7693;SDS011;3889;48.162;11.510;2023-04-15T11:46:01;7.28;;;5.30;;
7693;SDS011;3889;48.162;11.510;2023-04-15T11:48:31;7.10;;;5.05;;
7693;SDS011;3889;48.162;11.510;2023-04-15T11:51:01;6.22;;;4.75;;
7693;SDS011;3889;48.162;11.510;2023-04-15T11:53:37;6.28;;;5.43;;
7693;SDS011;3889;48.162;11.510;2023-04-15T11:56:09;6.25;;;5.00;;
7693;SDS011;3889;48.162;11.510;2023-04-15T11:58:37;5.45;;;4.75;;
7693;SDS011;3889;48.162;11.510;2023-04-15T12:01:05;5.40;;;4.90;;
7693;SDS011;3889;48.162;11.510;2023-04-15T12:03:38;5.60;;;5.05;;
7693;SDS011;3889;48.162;11.510;2023-04-15T12:06:08;5.68;;;4.85;;
7693;SDS011;3889;48.162;11.510;2023-04-15T12:08:47;6.07;;;4.85;;
7693;SDS011;3889;48.162;11.510;2023-04-15T12:11:16;5.77;;;4.90;;
7693;SDS011;3889;48.162;11.510;2023-04-15T12:13:44;5.70;;;5.00;;
7693;SDS011;3889;48.162;11.510;2023-04-15T12:16:15;6.03;;;5.17;;
7693;SDS011;3889;48.162;11.510;2023-04-15T12:18:45;5.60;;;4.97;;
7693;SDS011;3889;48.162;11.510;2023-04-15T12:21:13;5.03;;;4.45;;
7693;SDS011;3889;48.162;11.510;2023-04-15T12:23:46;5.25;;;4.65;;
7693;SDS011;3889;48.162;11.510;2023-04-15T12:26:15;5.85;;;4.90;;
7693;SDS011;3889;48.162;11.510;2023-04-15T12:28:43;6.80;;;4.65;;
7693;SDS011;3889;48.162;11.510;2023-04-15T12:31:11;5.38;;;4.30;;
7693;SDS011;3889;48.162;11.510;2023-04-15T12:33:41;4.83;;;4.30;;
7693;SDS011;3889;48.162;11.510;2023-04-15T12:36:10;4.20;;;3.17;;
7693;SDS011;3889;48.162;11.510;2023-04-15T12:38:38;5.22;;;3.80;;
7693;SDS011;3889;48.162;11.510;2023-04-15T12:41:06;4.77;;;3.87;;
7693;SDS011;3889;48.162;11.510;2023-04-15T12:43:34;4.45;;;3.50;;
7693;SDS011;3889;48.162;11.510;2023-04-15T12:46:02;4.28;;;3.50;;
7693;SDS011;3889;48.162;11.510;2023-04-15T12:48:30;7.28;;;3.58;;
7693;SDS011;3889;48.162;11.510;2023-04-15T12:50:59;3.47;;;3.15;;
7693;SDS011;3889;48.162;11.510;2023-04-15T12:53:29;3.80;;;3.40;;
7693;SDS011;3889;48.162;11.510;2023-04-15T12:55:57;3.85;;;3.30;;
7693;SDS011;3889;48.162;11.510;2023-04-15T12:58:26;4.15;;;3.40;;
7693;SDS011;3889;48.162;11.510;2023-04-15T13:00:54;4.45;;;3.20;;
7693;SDS011;3889;48.162;11.510;2023-04-15T13:03:22;5.38;;;3.10;;
7693;SDS011;3889;48.162;11.510;2023-04-15T13:05:51;5.03;;;3.42;;
7693;SDS011;3889;48.162;11.510;2023-04-15T13:08:18;3.92;;;3.10;;
7693;SDS011;3889;48.162;11.510;2023-04-15T13:10:48;4.28;;;3.28;;
7693;SDS011;3889;48.162;11.510;2023-04-15T13:13:16;3.63;;;2.80;;
7693;SDS011;3889;48.162;11.510;2023-04-15T13:15:44;4.03;;;2.92;;
7693;SDS011;3889;48.162;11.510;2023-04-15T13:18:12;4.57;;;2.90;;
7693;SDS011;3889;48.162;11.510;2023-04-15T13:20:40;4.30;;;3.20;;
7693;SDS011;3889;48.162;11.510;2023-04-15T13:23:08;4.07;;;3.25;;
7693;SDS011;3889;48.162;11.510;2023-04-15T13:25:36;4.32;;;3.45;;
7693;SDS011;3889;48.162;11.510;2023-04-15T13:28:05;4.07;;;3.30;;
7693;SDS011;3889;48.162;11.510;2023-04-15T13:30:36;4.90;;;3.58;;
7693;SDS011;3889;48.162;11.510;2023-04-15T13:33:04;5.43;;;3.97;;
7693;SDS011;3889;48.162;11.510;2023-04-15T13:35:32;4.90;;;4.03;;
7693;SDS011;3889;48.162;11.510;2023-04-15T13:38:00;5.85;;;4.10;;
7693;SDS011;3889;48.162;11.510;2023-04-15T13:40:28;6.13;;;4.25;;
7693;SDS011;3889;48.162;11.510;2023-04-15T13:42:56;4.95;;;4.07;;
7693;SDS011;3889;48.162;11.510;2023-04-15T13:45:26;4.60;;;4.18;;
7693;SDS011;3889;48.162;11.510;2023-04-15T13:47:54;5.32;;;4.55;;
7693;SDS011;3889;48.162;11.510;2023-04-15T13:50:22;4.72;;;4.32;;
7693;SDS011;3889;48.162;11.510;2023-04-15T13:52:50;4.90;;;4.15;;
7693;SDS011;3889;48.162;11.510;2023-04-15T13:55:18;5.68;;;4.50;;
7693;SDS011;3889;48.162;11.510;2023-04-15T13:57:49;5.05;;;4.28;;
7693;SDS011;3889;48.162;11.510;2023-04-15T14:00:17;5.13;;;4.20;;
7693;SDS011;3889;48.162;11.510;2023-04-15T14:02:47;5.93;;;4.38;;
7693;SDS011;3889;48.162;11.510;2023-04-15T14:05:15;5.00;;;4.25;;
7693;SDS011;3889;48.162;11.510;2023-04-15T14:07:43;5.57;;;3.78;;
7693;SDS011;3889;48.162;11.510;2023-04-15T14:10:11;4.40;;;4.00;;
7693;SDS011;3889;48.162;11.510;2023-04-15T14:12:39;6.60;;;3.80;;
7693;SDS011;3889;48.162;11.510;2023-04-15T14:15:07;4.65;;;3.15;;
7693;SDS011;3889;48.162;11.510;2023-04-15T14:17:36;3.80;;;3.40;;
7693;SDS011;3889;48.162;11.510;2023-04-15T14:20:07;6.30;;;3.60;;
7693;SDS011;3889;48.162;11.510;2023-04-15T14:22:36;4.32;;;3.30;;
7693;SDS011;3889;48.162;11.510;2023-04-15T14:25:04;4.93;;;4.00;;
7693;SDS011;3889;48.162;11.510;2023-04-15T14:27:32;5.57;;;3.20;;
7693;SDS011;3889;48.162;11.510;2023-04-15T14:30:00;4.78;;;3.40;;
7693;SDS011;3889;48.162;11.510;2023-04-15T14:32:28;4.22;;;3.10;;
7693;SDS011;3889;48.162;11.510;2023-04-15T14:34:56;4.47;;;3.40;;
7693;SDS011;3889;48.162;11.510;2023-04-15T14:37:25;4.00;;;3.10;;
7693;SDS011;3889;48.162;11.510;2023-04-15T14:39:53;4.00;;;3.47;;
7693;SDS011;3889;48.162;11.510;2023-04-15T14:42:21;4.60;;;3.45;;
7693;SDS011;3889;48.162;11.510;2023-04-15T14:44:49;5.85;;;3.78;;
7693;SDS011;3889;48.162;11.510;2023-04-15T14:47:17;4.22;;;3.65;;
7693;SDS011;3889;48.162;11.510;2023-04-15T14:49:45;3.90;;;3.50;;
7693;SDS011;3889;48.162;11.510;2023-04-15T14:52:13;3.80;;;3.47;;
7693;SDS011;3889;48.162;11.510;2023-04-15T14:54:42;3.90;;;3.50;;
7693;SDS011;3889;48.162;11.510;2023-04-15T14:57:10;4.47;;;4.07;;
7693;SDS011;3889;48.162;11.510;2023-04-15T14:59:38;4.65;;;4.25;;
7693;SDS011;3889;48.162;11.510;2023-04-15T15:02:06;4.95;;;4.55;;
7693;SDS011;3889;48.162;11.510;2023-04-15T15:04:34;5.05;;;4.63;;
7693;SDS011;3889;48.162;11.510;2023-04-15T15:07:03;4.88;;;4.47;;
7693;SDS011;3889;48.162;11.510;2023-04-15T15:09:31;7.50;;;5.05;;
7693;SDS011;3889;48.162;11.510;2023-04-15T15:12:01;5.85;;;5.20;;
7693;SDS011;3889;48.162;11.510;2023-04-15T15:14:30;5.40;;;4.90;;